Memphis International Airport
KMEM : now visible

Airfield :











YOU CAN JOIN US ON...

 
LOGIN :

Register | Disclaimer

   EN    FR    IT 

 









Legend :    VFR   Marginal VFR   IFR   Intensive IFR   Very Intensive IFR
Visi :
Ceiling :
>= 8 km
>= 3000ft
5 to 8 km
1000 to 3000 ft
1500m to 5 km
500 to 1000 ft
800 to 1500m
200 to 500 ft
< 800m
< 200 ft
Symbols :   Thunderstorms  Fog  Heavy snow  Heavy precipitations  Wind > 20 kt






- Airport Elevation : 341 ft
- IATA code : MEM


KMEM - Memphis International

CURRENT METAR :
  • 190236Z 08009KT 10SM SCT065 BKN120 23/21 A3005 RMK AO2 T02330206

EXPIRED METARs :
  • 190154Z 07008KT 10SM SCT014 BKN022 BKN120 24/22 A3005 RMK AO2 SLP171 T02390217
  • 190054Z 05005KT 10SM SCT014 BKN022 BKN120 24/22 A3002 RMK AO2 SLP161 T02440222
  • 190041Z 01004KT 10SM SCT014 BKN022 BKN120 24/22 A3001 RMK AO2 T02440222
  • 182354Z 03007KT 10SM BKN014 BKN022 BKN029 26/23 A3000 RMK AO2 RAB11E30 SLP154 P0008 60008 T02610233 10272 20228 56003

TAF KMEM
Valid from the 19 at 00:00 until the 20 at 06:00 UTC


182321Z 1900/2006 06005KT P6SM SCT015 BKN250
TEMPO 1900/1902 BKN015
FM190700 VRB04KT P6SM OVC008
TEMPO 1908/1912 5SM BR BKN002
FM191600 VRB04KT P6SM VCTS OVC020CB
FM191900 11004KT P6SM VCTS BKN050CB BKN250
FM200200 12004KT P6SM BKN250
KZME FIR / North America



MET'MAP, your aeronautical weather chart ! - Copyright ORBIFLY December 2007 - Disclaimer

ORBIFLY MET'MAP TEAM :

Programming & Development : Alexandra Zaïnal
Concept & original design : Baudouin d'Aumeries
Assistance for programming : Marc-Olivier Méhu
Technical & hardware support : Manuel Goepfert

Contact : metmap@orbifly.com




SOURCES & CREDITS :

   NOAA       Earth
Advisory